To NAV CANADA Home Page Login to a new session Search on AWWS site Feedback and Comments Disclaimer Vers la page française équivalente Tips FAQ What's new on the site To the Forecasts and Observations / NOTAM section To "File a Flight Plan" website Publications and other links Update of the User's profile FIC Telephone Numbers My Weather Data Folder Route Weather Data Regional Weather Data Local Weather Data To the Forecasts and Observations / NOTAM section
Request Generated 05/25/2017 at 01:14:02 UTC . Weather information available at that time is displayed.

METAR/TAF

CHURCHILL/MB    (show WxCam)

METAR CYYQ 250100Z 23009KT 15SM BKN090 OVC140 15/07 A2948 RMK AC6AC2
SLP984 DENSITY ALT 600FT=
METAR CYYQ 250000Z 20008KT 15SM BKN095 BKN150 BKN260 14/07 A2946 RMK
AC6AC1CI1 CI TR SLP979 DENSITY ALT 500FT=
METAR CYYQ 242300Z 21011KT 15SM BKN100 BKN260 15/06 A2945 RMK AC7CI1
CI TR SLP975 DENSITY ALT 600FT=

TAF CYYQ 242338Z 2500/2524 21012KT P6SM BKN100
BECMG 2506/2508 03008KT
FM250900 02006KT 1/2SM FG VV002 TEMPO 2509/2524 3SM BR OVC006
BECMG 2512/2514 06008KT
RMK NXT FCST BY 250600Z=
Your time UTC time
Weather data provided by Environment Canada and NAV CANADA